createdAt,value
2023-01-19T00:00:04.414Z,43.9
2023-01-19T00:01:04.306Z,43.9
2023-01-19T00:02:04.358Z,43.9
2023-01-19T00:03:04.442Z,44.0
2023-01-19T00:04:04.339Z,44.1
2023-01-19T00:05:04.322Z,44.2
2023-01-19T00:06:04.397Z,44.3
2023-01-19T00:07:04.301Z,44.3
2023-01-19T00:08:04.341Z,44.4
2023-01-19T00:09:04.330Z,44.5
2023-01-19T00:10:04.354Z,44.5
2023-01-19T00:11:04.324Z,44.6
2023-01-19T00:12:04.399Z,44.6
2023-01-19T00:13:04.366Z,44.7
2023-01-19T00:14:04.359Z,44.8
2023-01-19T00:15:04.342Z,44.8
2023-01-19T00:16:04.375Z,44.8
2023-01-19T00:17:04.318Z,44.8
2023-01-19T00:18:04.382Z,44.9
2023-01-19T00:19:04.313Z,44.9
2023-01-19T00:20:04.341Z,45.0
2023-01-19T00:21:04.346Z,45.0
2023-01-19T00:22:04.343Z,45.0
2023-01-19T00:23:04.326Z,45.1
2023-01-19T00:24:04.358Z,45.1
2023-01-19T00:25:04.327Z,45.1
2023-01-19T00:26:04.361Z,45.1
2023-01-19T00:27:04.320Z,45.2
2023-01-19T00:28:04.336Z,45.2
2023-01-19T00:29:04.311Z,45.2
2023-01-19T00:30:04.397Z,45.2
2023-01-19T00:31:04.377Z,45.2
2023-01-19T00:32:04.361Z,45.3
2023-01-19T00:33:04.356Z,45.3
2023-01-19T00:34:04.340Z,45.4
2023-01-19T00:35:04.326Z,45.4
2023-01-19T00:36:04.413Z,45.4
2023-01-19T00:37:04.334Z,45.4
2023-01-19T00:38:04.346Z,45.5
2023-01-19T00:39:04.319Z,45.5
2023-01-19T00:40:04.362Z,45.6
2023-01-19T00:41:12.715Z,45.6
2023-01-19T00:42:04.396Z,45.6
2023-01-19T00:43:04.344Z,45.7
2023-01-19T00:44:04.378Z,45.7
2023-01-19T00:45:04.326Z,45.7
2023-01-19T00:46:04.402Z,45.8
2023-01-19T00:47:04.346Z,45.8
2023-01-19T00:48:04.380Z,45.8
2023-01-19T00:49:04.349Z,45.8
2023-01-19T00:50:04.396Z,45.9
2023-01-19T00:51:04.334Z,45.9
2023-01-19T00:52:04.363Z,45.9
2023-01-19T00:53:04.330Z,45.9
2023-01-19T00:54:04.372Z,46.0
2023-01-19T00:55:04.335Z,46.0
2023-01-19T00:56:04.356Z,46.0
2023-01-19T00:57:04.333Z,46.0
2023-01-19T00:58:04.355Z,46.1
2023-01-19T00:59:04.332Z,46.1
2023-01-19T01:00:04.388Z,46.1
2023-01-19T01:01:04.390Z,46.1
2023-01-19T01:02:04.602Z,46.2
2023-01-19T01:03:04.904Z,46.2
2023-01-19T01:04:04.366Z,46.2
2023-01-19T01:05:04.472Z,46.2
2023-01-19T01:06:04.405Z,46.2
2023-01-19T01:07:04.340Z,46.2
2023-01-19T01:08:04.362Z,46.2
2023-01-19T01:09:04.336Z,46.3
2023-01-19T01:10:04.361Z,46.3
2023-01-19T01:11:04.327Z,46.3
2023-01-19T01:12:04.389Z,46.3
2023-01-19T01:13:23.693Z,46.4
2023-01-19T01:14:04.350Z,46.5
2023-01-19T01:15:04.334Z,46.4
2023-01-19T01:16:04.502Z,46.4
2023-01-19T01:17:04.331Z,46.4
2023-01-19T01:18:04.385Z,46.4
2023-01-19T01:19:04.361Z,46.4
2023-01-19T01:20:04.351Z,46.4
2023-01-19T01:21:04.329Z,46.4
2023-01-19T01:22:04.360Z,46.4
2023-01-19T01:23:04.625Z,46.5
2023-01-19T01:24:04.424Z,46.5
2023-01-19T01:25:04.341Z,46.5
2023-01-19T01:26:04.361Z,46.5
2023-01-19T01:27:04.330Z,46.5
2023-01-19T01:28:04.357Z,46.5
2023-01-19T01:29:04.359Z,46.5
2023-01-19T01:30:04.407Z,46.5
2023-01-19T01:31:04.327Z,46.6
2023-01-19T01:32:04.371Z,46.6
2023-01-19T01:33:04.350Z,46.6
2023-01-19T01:34:04.387Z,46.6
2023-01-19T01:35:04.331Z,46.6
2023-01-19T01:36:04.530Z,46.7
2023-01-19T01:37:04.361Z,46.7
2023-01-19T01:38:04.367Z,46.7
2023-01-19T01:39:04.346Z,46.7
2023-01-19T01:41:10.233Z,46.7
2023-01-19T01:41:14.215Z,48.7
2023-01-19T01:42:04.377Z,47.0
2023-01-19T01:43:04.335Z,46.8
2023-01-19T01:44:04.390Z,46.8
2023-01-19T01:45:04.341Z,46.8
2023-01-19T01:46:04.452Z,46.8
2023-01-19T01:47:04.394Z,46.8
2023-01-19T01:48:04.366Z,46.8
2023-01-19T01:49:04.347Z,46.8
2023-01-19T01:50:04.370Z,46.8
2023-01-19T01:51:04.337Z,46.8
2023-01-19T01:52:04.375Z,46.8
2023-01-19T01:53:06.379Z,46.9
2023-01-19T01:54:04.411Z,46.9
2023-01-19T01:55:04.342Z,46.9
2023-01-19T01:56:04.373Z,46.9
2023-01-19T01:57:04.341Z,46.9
2023-01-19T01:58:04.373Z,46.9
2023-01-19T01:59:04.379Z,46.9
2023-01-19T02:00:04.401Z,46.9
2023-01-19T02:01:04.423Z,46.9
2023-01-19T02:02:04.431Z,46.9
2023-01-19T02:03:04.590Z,46.9
2023-01-19T02:04:04.370Z,46.9
2023-01-19T02:05:04.385Z,46.9
2023-01-19T02:06:04.388Z,46.9
2023-01-19T02:07:04.354Z,47.0
2023-01-19T02:08:04.391Z,47.0
2023-01-19T02:09:04.366Z,47.0
2023-01-19T02:10:04.362Z,47.0
2023-01-19T02:11:04.382Z,47.0
2023-01-19T02:12:04.370Z,47.0
2023-01-19T02:13:04.340Z,47.0
2023-01-19T02:14:04.383Z,47.0
2023-01-19T02:15:04.356Z,47.0
2023-01-19T02:16:04.465Z,47.0
2023-01-19T02:17:04.446Z,47.0
2023-01-19T02:18:04.358Z,47.0
2023-01-19T02:19:04.380Z,47.0
2023-01-19T02:20:04.370Z,47.1
2023-01-19T02:21:04.373Z,47.1
2023-01-19T02:22:04.377Z,47.1
2023-01-19T02:23:04.411Z,47.1
2023-01-19T02:24:04.358Z,47.1
2023-01-19T02:25:04.373Z,47.1
2023-01-19T02:26:04.356Z,47.1
2023-01-19T02:27:04.379Z,47.1
2023-01-19T02:28:04.466Z,47.1
2023-01-19T02:29:04.441Z,47.1
2023-01-19T02:30:04.351Z,47.1
2023-01-19T02:31:04.399Z,47.1
2023-01-19T02:32:04.357Z,47.2
2023-01-19T02:33:04.367Z,47.2
2023-01-19T02:34:04.379Z,47.2
2023-01-19T02:35:04.408Z,47.2
2023-01-19T02:36:04.389Z,47.2
2023-01-19T02:37:04.390Z,47.2
2023-01-19T02:38:04.458Z,47.2
2023-01-19T02:39:04.391Z,47.2
2023-01-19T02:40:04.381Z,47.2
2023-01-19T02:41:04.465Z,47.2
2023-01-19T02:42:04.370Z,47.3
2023-01-19T02:44:28.742Z,47.3
2023-01-19T02:44:32.705Z,49.4
2023-01-19T02:45:04.361Z,47.7
2023-01-19T02:46:04.363Z,47.5
2023-01-19T02:47:04.605Z,47.4
2023-01-19T02:48:04.363Z,47.4
2023-01-19T02:49:04.397Z,47.4
2023-01-19T02:50:04.368Z,47.3
2023-01-19T02:51:04.428Z,47.3
2023-01-19T02:52:04.380Z,47.4
2023-01-19T02:53:04.691Z,47.3
2023-01-19T02:54:04.374Z,47.4
2023-01-19T02:55:04.401Z,47.3
2023-01-19T02:56:04.362Z,47.3
2023-01-19T02:57:04.388Z,47.3
2023-01-19T02:58:04.367Z,47.3
2023-01-19T02:59:04.418Z,47.3
2023-01-19T03:00:04.367Z,47.3
2023-01-19T03:01:04.453Z,47.4
2023-01-19T03:02:04.405Z,47.4
2023-01-19T03:03:04.800Z,47.4
2023-01-19T03:04:04.369Z,47.4
2023-01-19T03:05:05.116Z,47.4
2023-01-19T03:06:04.372Z,47.4
2023-01-19T03:07:04.398Z,47.4
2023-01-19T03:08:04.395Z,47.4
2023-01-19T03:09:04.404Z,47.4
2023-01-19T03:10:04.395Z,47.4
2023-01-19T03:11:04.424Z,47.4
2023-01-19T03:12:04.359Z,47.4
2023-01-19T03:13:04.397Z,47.4
2023-01-19T03:14:04.376Z,47.4
2023-01-19T03:15:04.417Z,47.4
2023-01-19T03:16:04.376Z,47.4
2023-01-19T03:17:04.422Z,47.4
2023-01-19T03:18:04.363Z,47.4
2023-01-19T03:19:04.400Z,47.4
2023-01-19T03:20:04.369Z,47.4
2023-01-19T03:21:04.406Z,47.5
2023-01-19T03:22:04.380Z,47.5
2023-01-19T03:23:04.574Z,47.5
2023-01-19T03:24:04.405Z,47.5
2023-01-19T03:25:04.391Z,47.5
2023-01-19T03:26:04.373Z,47.5
2023-01-19T03:27:04.407Z,47.4
2023-01-19T03:28:04.501Z,47.5
2023-01-19T03:29:04.546Z,47.5
2023-01-19T03:30:04.374Z,47.5
2023-01-19T03:31:04.417Z,47.5
2023-01-19T03:32:04.357Z,47.5
2023-01-19T03:33:04.407Z,47.5
2023-01-19T03:34:04.375Z,47.5
2023-01-19T03:35:04.425Z,47.5
2023-01-19T03:36:04.372Z,47.5
2023-01-19T03:37:04.407Z,47.5
2023-01-19T03:38:04.399Z,47.5
2023-01-19T03:39:04.405Z,47.5
2023-01-19T03:40:04.380Z,47.5
2023-01-19T03:41:04.439Z,47.5
2023-01-19T03:42:04.370Z,47.5
2023-01-19T03:43:04.409Z,47.5
2023-01-19T03:44:04.375Z,47.5
2023-01-19T03:45:04.411Z,47.5
2023-01-19T03:46:04.413Z,47.5
2023-01-19T03:47:04.444Z,47.5
2023-01-19T03:48:04.381Z,47.5
2023-01-19T03:49:04.397Z,47.5
2023-01-19T03:50:04.379Z,47.5
2023-01-19T03:51:04.397Z,47.5
2023-01-19T03:52:04.380Z,47.5
2023-01-19T03:53:04.433Z,47.5
2023-01-19T03:54:04.387Z,47.5
2023-01-19T03:55:04.407Z,47.6
2023-01-19T03:56:04.379Z,47.6
2023-01-19T03:57:04.421Z,47.5
2023-01-19T03:58:04.396Z,47.5
2023-01-19T03:59:04.437Z,47.5
2023-01-19T04:00:04.379Z,47.6
2023-01-19T04:01:04.455Z,47.5
2023-01-19T04:02:04.482Z,47.5
2023-01-19T04:03:11.178Z,47.6
2023-01-19T04:04:03.856Z,47.6
2023-01-19T04:05:03.858Z,47.6
2023-01-19T04:06:03.867Z,47.5
2023-01-19T04:07:03.814Z,47.6
2023-01-19T04:08:03.859Z,47.6
2023-01-19T04:09:03.834Z,47.6
2023-01-19T04:10:03.856Z,47.6
2023-01-19T04:11:03.865Z,47.6
2023-01-19T04:12:03.859Z,47.6
2023-01-19T04:13:04.154Z,47.6
2023-01-19T04:14:03.842Z,47.6
2023-01-19T04:15:03.855Z,47.6
2023-01-19T04:16:03.911Z,47.6
2023-01-19T04:17:03.893Z,47.6
2023-01-19T04:18:03.831Z,47.6
2023-01-19T04:19:03.848Z,47.6
2023-01-19T04:20:03.825Z,47.6
2023-01-19T04:21:03.861Z,47.6
2023-01-19T04:22:03.845Z,47.6
2023-01-19T04:23:04.198Z,47.6
2023-01-19T04:24:03.823Z,47.6
2023-01-19T04:25:03.848Z,47.6
2023-01-19T04:26:03.840Z,47.6
2023-01-19T04:27:03.943Z,47.6
2023-01-19T04:28:03.849Z,47.6
2023-01-19T04:29:03.925Z,47.6
2023-01-19T04:30:03.823Z,47.6
2023-01-19T04:31:03.938Z,47.7
2023-01-19T04:32:03.843Z,47.6
2023-01-19T04:33:04.281Z,47.6
2023-01-19T04:34:03.835Z,47.6
2023-01-19T04:35:03.900Z,47.6
2023-01-19T04:36:03.835Z,47.6
2023-01-19T04:37:03.864Z,47.6
2023-01-19T04:38:03.870Z,47.6
2023-01-19T04:39:03.881Z,47.6
2023-01-19T04:40:03.837Z,47.7
2023-01-19T04:41:03.913Z,47.6
2023-01-19T04:42:03.844Z,47.6
2023-01-19T04:43:04.030Z,47.7
2023-01-19T04:44:03.851Z,47.7
2023-01-19T04:45:03.879Z,47.7
2023-01-19T04:46:03.963Z,47.7
2023-01-19T04:47:03.912Z,47.7
2023-01-19T04:48:03.834Z,47.7
2023-01-19T04:49:03.855Z,47.7
2023-01-19T04:50:03.837Z,47.7
2023-01-19T04:51:03.854Z,47.7
2023-01-19T04:52:03.877Z,47.7
2023-01-19T04:53:03.902Z,47.7
2023-01-19T04:54:03.889Z,47.7
2023-01-19T04:55:03.890Z,47.7
2023-01-19T04:56:03.850Z,47.7
2023-01-19T04:57:03.871Z,47.7
2023-01-19T04:58:03.843Z,47.8
2023-01-19T04:59:03.910Z,47.8
2023-01-19T05:00:03.860Z,47.8
2023-01-19T05:01:03.868Z,47.8
2023-01-19T05:02:03.905Z,47.6
2023-01-19T05:03:04.385Z,47.5
2023-01-19T05:04:03.848Z,47.2
2023-01-19T05:05:03.904Z,47.0
2023-01-19T05:06:03.848Z,46.8
2023-01-19T05:07:03.897Z,46.6
2023-01-19T05:08:03.848Z,46.4
2023-01-19T05:09:03.868Z,46.2
2023-01-19T05:10:03.866Z,46.2
2023-01-19T05:11:03.895Z,46.2
2023-01-19T05:12:03.852Z,46.1
2023-01-19T05:13:03.991Z,46.0
2023-01-19T05:14:03.847Z,46.0
2023-01-19T05:16:37.908Z,47.1
2023-01-19T05:17:04.479Z,46.2
2023-01-19T05:18:04.447Z,45.9
2023-01-19T05:19:05.111Z,45.7
2023-01-19T05:20:04.441Z,45.6
2023-01-19T05:21:04.471Z,45.4
2023-01-19T05:22:04.492Z,45.4
2023-01-19T05:23:04.489Z,45.2
2023-01-19T05:24:04.437Z,45.2
2023-01-19T05:25:04.463Z,45.1
2023-01-19T05:26:04.444Z,45.0
2023-01-19T05:27:04.459Z,45.0
2023-01-19T05:28:04.473Z,44.9
2023-01-19T05:29:04.478Z,44.9
2023-01-19T05:30:04.439Z,44.7
2023-01-19T05:31:04.561Z,44.7
2023-01-19T05:32:04.546Z,44.5
2023-01-19T05:33:04.474Z,44.2
2023-01-19T05:34:04.477Z,44.0
2023-01-19T05:35:04.506Z,43.7
2023-01-19T05:36:04.464Z,43.4
2023-01-19T05:37:04.476Z,43.1
2023-01-19T05:38:04.461Z,42.8
2023-01-19T05:39:04.484Z,42.7
2023-01-19T05:40:04.470Z,42.6
2023-01-19T05:41:04.501Z,42.3
2023-01-19T05:42:04.470Z,42.2
2023-01-19T05:43:04.911Z,42.0
2023-01-19T05:44:04.471Z,41.9
2023-01-19T05:45:04.468Z,41.8
2023-01-19T05:46:04.489Z,41.4
2023-01-19T05:47:04.500Z,41.4
2023-01-19T05:48:04.443Z,42.1
2023-01-19T05:49:04.481Z,42.2
2023-01-19T05:50:04.580Z,42.3
2023-01-19T05:51:04.619Z,42.4
2023-01-19T05:52:04.614Z,42.4
2023-01-19T05:53:04.549Z,42.4
2023-01-19T05:54:04.612Z,42.4
2023-01-19T05:55:04.641Z,42.4
2023-01-19T05:56:04.599Z,42.5
2023-01-19T05:57:04.583Z,42.6
2023-01-19T05:58:04.632Z,42.7
2023-01-19T05:59:04.660Z,42.7
2023-01-19T06:00:04.612Z,42.8
2023-01-19T06:01:06.124Z,42.8
2023-01-19T06:02:04.883Z,42.8
2023-01-19T06:03:05.018Z,42.8
2023-01-19T06:04:04.879Z,42.8
2023-01-19T06:05:04.877Z,42.8
2023-01-19T06:06:04.767Z,42.8
2023-01-19T06:07:04.672Z,42.8
2023-01-19T06:08:04.629Z,42.8
2023-01-19T06:09:04.660Z,42.7
2023-01-19T06:10:04.652Z,42.7
2023-01-19T06:12:41.596Z,42.7
2023-01-19T06:12:45.759Z,44.6
2023-01-19T06:13:04.618Z,43.4
2023-01-19T06:14:04.590Z,42.8
2023-01-19T06:15:04.626Z,42.8
2023-01-19T06:16:04.706Z,42.7
2023-01-19T06:17:13.939Z,42.7
2023-01-19T06:18:04.125Z,42.6
2023-01-19T06:19:04.405Z,42.6
2023-01-19T06:20:04.344Z,42.5
2023-01-19T06:21:05.805Z,42.5
2023-01-19T06:22:04.527Z,42.4
2023-01-19T06:23:04.282Z,42.4
2023-01-19T06:24:04.859Z,42.4
2023-01-19T06:25:04.148Z,42.4
2023-01-19T06:26:04.100Z,42.3
2023-01-19T06:27:04.908Z,42.2
2023-01-19T06:28:04.416Z,42.2
2023-01-19T06:29:04.114Z,42.3
2023-01-19T06:30:04.116Z,42.2
2023-01-19T06:31:04.140Z,42.1
2023-01-19T06:32:04.184Z,42.0
2023-01-19T06:33:04.246Z,42.1
2023-01-19T06:34:04.192Z,42.0
2023-01-19T06:35:04.152Z,42.0
2023-01-19T06:36:04.128Z,42.0
2023-01-19T06:37:04.162Z,41.9
2023-01-19T06:38:04.077Z,41.9
2023-01-19T06:39:04.128Z,41.8
2023-01-19T06:40:04.152Z,41.9
2023-01-19T06:41:04.296Z,41.8
2023-01-19T06:42:04.135Z,41.7
2023-01-19T06:43:04.258Z,41.7
2023-01-19T06:44:04.281Z,41.7
2023-01-19T06:45:04.144Z,41.6
2023-01-19T06:46:04.597Z,41.7
2023-01-19T06:47:15.580Z,41.6
2023-01-19T06:48:04.401Z,41.7
2023-01-19T06:49:04.138Z,41.6
2023-01-19T06:50:04.103Z,41.5
2023-01-19T06:51:04.250Z,41.5
2023-01-19T06:52:04.105Z,41.5
2023-01-19T06:53:04.085Z,41.5
2023-01-19T06:54:04.062Z,41.6
2023-01-19T06:55:04.133Z,41.5
2023-01-19T06:56:04.809Z,41.4
2023-01-19T06:57:04.443Z,41.3
2023-01-19T06:58:04.147Z,41.3
2023-01-19T06:59:04.119Z,41.3
2023-01-19T07:00:04.125Z,41.2
2023-01-19T07:01:04.262Z,41.3
2023-01-19T07:02:26.586Z,41.2
2023-01-19T07:03:04.667Z,41.3
2023-01-19T07:04:04.105Z,41.3
2023-01-19T07:05:05.089Z,41.2
2023-01-19T07:06:04.149Z,41.2
2023-01-19T07:07:04.154Z,41.1
2023-01-19T07:08:04.342Z,41.1
2023-01-19T07:09:04.129Z,41.1
2023-01-19T07:11:54.976Z,42.1
2023-01-19T07:12:04.524Z,41.9
2023-01-19T07:13:04.737Z,41.2
2023-01-19T07:14:04.506Z,41.2
2023-01-19T07:15:04.542Z,41.0
2023-01-19T07:16:04.717Z,40.9
2023-01-19T07:17:04.546Z,40.9
2023-01-19T07:18:04.502Z,40.9
2023-01-19T07:19:04.496Z,40.8
2023-01-19T07:20:04.570Z,40.8
2023-01-19T07:21:04.526Z,40.8
2023-01-19T07:22:04.638Z,40.8
2023-01-19T07:23:04.488Z,40.9
2023-01-19T07:24:04.501Z,40.9
2023-01-19T07:25:04.533Z,40.7
2023-01-19T07:26:04.558Z,40.6
2023-01-19T07:27:04.548Z,40.9
2023-01-19T07:28:04.580Z,40.9
2023-01-19T07:29:04.502Z,40.9
2023-01-19T07:30:04.549Z,40.8
2023-01-19T07:31:04.588Z,40.8
2023-01-19T07:32:04.554Z,40.7
2023-01-19T07:33:04.525Z,40.7
2023-01-19T07:34:04.609Z,40.6
2023-01-19T07:35:04.602Z,40.4
2023-01-19T07:36:05.637Z,40.4
2023-01-19T07:37:04.478Z,40.3
2023-01-19T07:38:04.578Z,40.3
2023-01-19T07:39:04.576Z,40.4
2023-01-19T07:40:04.477Z,40.4
2023-01-19T07:41:04.416Z,40.4
2023-01-19T07:42:04.451Z,40.4
2023-01-19T07:43:04.489Z,40.4
2023-01-19T07:44:04.487Z,40.6
2023-01-19T07:45:04.512Z,40.7
2023-01-19T07:46:04.531Z,40.4
2023-01-19T07:47:04.420Z,40.3
2023-01-19T07:48:06.025Z,40.2
2023-01-19T07:49:04.423Z,40.2
2023-01-19T07:50:04.487Z,40.3
2023-01-19T07:51:04.418Z,40.2
2023-01-19T07:52:04.454Z,40.3
2023-01-19T07:53:04.413Z,40.2
2023-01-19T07:54:04.732Z,40.2
2023-01-19T07:55:04.428Z,40.3
2023-01-19T07:56:04.483Z,40.2
2023-01-19T07:57:04.431Z,40.2
2023-01-19T07:58:04.451Z,40.3
2023-01-19T07:59:04.454Z,40.4
2023-01-19T08:00:04.490Z,40.4
2023-01-19T08:01:04.555Z,40.4
2023-01-19T08:02:04.594Z,40.3
2023-01-19T08:03:04.892Z,40.2
2023-01-19T08:04:04.449Z,40.2
2023-01-19T08:05:04.460Z,40.1
2023-01-19T08:06:04.447Z,40.1
2023-01-19T08:07:04.422Z,40.1
2023-01-19T08:08:04.449Z,40.0
2023-01-19T08:09:04.601Z,40.0
2023-01-19T08:10:04.470Z,39.9
2023-01-19T08:11:04.477Z,39.9
2023-01-19T08:12:04.451Z,39.9
2023-01-19T08:13:04.446Z,39.9
2023-01-19T08:14:06.888Z,39.8
2023-01-19T08:15:04.429Z,39.7
2023-01-19T08:16:04.516Z,39.7
2023-01-19T08:17:04.472Z,39.8
2023-01-19T08:18:04.461Z,39.9
2023-01-19T08:20:09.097Z,40.0
2023-01-19T08:20:13.084Z,41.6
2023-01-19T08:21:04.467Z,40.0
2023-01-19T08:22:04.476Z,40.1
2023-01-19T08:23:04.847Z,40.1
2023-01-19T08:24:04.483Z,40.0
2023-01-19T08:25:04.425Z,39.9
2023-01-19T08:26:04.449Z,39.8
2023-01-19T08:27:04.430Z,39.8
2023-01-19T08:28:04.451Z,39.8
2023-01-19T08:29:04.452Z,39.7
2023-01-19T08:30:04.461Z,39.7
2023-01-19T08:31:18.723Z,39.6
2023-01-19T08:32:04.565Z,39.7
2023-01-19T08:33:04.668Z,39.6
2023-01-19T08:34:04.496Z,39.6
2023-01-19T08:35:04.497Z,39.6
2023-01-19T08:36:04.474Z,39.6
2023-01-19T08:37:04.434Z,39.6
2023-01-19T08:38:04.482Z,39.6
2023-01-19T08:39:04.429Z,39.5
2023-01-19T08:40:04.457Z,39.5
2023-01-19T08:41:04.476Z,39.5
2023-01-19T08:42:04.471Z,39.5
2023-01-19T08:43:04.461Z,39.5
2023-01-19T08:44:04.464Z,39.5
2023-01-19T08:45:04.440Z,39.5
2023-01-19T08:46:04.481Z,39.5
2023-01-19T08:47:04.485Z,39.5
2023-01-19T08:48:04.467Z,39.4
2023-01-19T08:49:04.447Z,39.4
2023-01-19T08:50:04.483Z,39.4
2023-01-19T08:51:04.476Z,39.4
2023-01-19T08:52:04.475Z,39.4
2023-01-19T08:53:04.467Z,39.3
2023-01-19T08:54:04.471Z,39.3
2023-01-19T08:55:04.468Z,39.3
2023-01-19T08:56:04.472Z,39.3
2023-01-19T08:57:04.450Z,39.3
2023-01-19T08:58:04.674Z,39.3
2023-01-19T08:59:09.921Z,39.3
2023-01-19T09:00:04.483Z,39.3
2023-01-19T09:01:04.467Z,39.2
2023-01-19T09:02:04.528Z,39.3
2023-01-19T09:03:04.982Z,39.3
2023-01-19T09:04:04.466Z,39.2
2023-01-19T09:05:04.474Z,39.3
2023-01-19T09:06:04.483Z,39.2
2023-01-19T09:08:04.536Z,39.2
2023-01-19T09:09:04.452Z,39.2
2023-01-19T09:10:04.475Z,39.2
2023-01-19T09:11:04.475Z,39.2
2023-01-19T09:12:04.496Z,39.2
2023-01-19T09:13:04.449Z,39.2
2023-01-19T09:14:04.475Z,39.2
2023-01-19T09:15:04.465Z,39.2
2023-01-19T09:16:04.530Z,39.1
2023-01-19T09:17:04.457Z,39.1
2023-01-19T09:18:04.497Z,39.1
2023-01-19T09:19:04.447Z,39.1
2023-01-19T09:20:04.475Z,39.1
2023-01-19T09:21:04.485Z,39.1
2023-01-19T09:22:04.468Z,39.1
2023-01-19T09:23:04.472Z,39.1
2023-01-19T09:24:04.478Z,39.1
2023-01-19T09:25:04.454Z,39.1
2023-01-19T09:26:04.500Z,39.1
2023-01-19T09:27:04.488Z,39.1
2023-01-19T09:28:04.517Z,39.1
2023-01-19T09:29:04.446Z,39.1
2023-01-19T09:30:04.491Z,39.1
2023-01-19T09:31:04.591Z,39.1
2023-01-19T09:32:04.472Z,39.1
2023-01-19T09:33:04.491Z,39.1
2023-01-19T09:34:04.511Z,39.1
2023-01-19T09:35:04.453Z,39.1
2023-01-19T09:36:04.483Z,39.1
2023-01-19T09:37:04.470Z,39.1
2023-01-19T09:38:04.466Z,39.1
2023-01-19T09:39:04.498Z,39.0
2023-01-19T09:40:04.518Z,39.0
2023-01-19T09:41:04.522Z,39.0
2023-01-19T09:42:04.486Z,39.0
2023-01-19T09:43:04.458Z,39.0
2023-01-19T09:44:04.497Z,39.0
2023-01-19T09:45:04.522Z,39.0
2023-01-19T09:46:04.491Z,39.0
2023-01-19T09:47:04.461Z,39.0
2023-01-19T09:48:04.486Z,39.0
2023-01-19T09:49:04.474Z,39.0
2023-01-19T09:50:04.476Z,39.0
2023-01-19T09:51:04.510Z,39.0
2023-01-19T09:52:04.516Z,39.0
2023-01-19T09:53:04.469Z,39.0
2023-01-19T09:54:04.502Z,39.0
2023-01-19T09:55:04.458Z,39.0
2023-01-19T09:56:04.504Z,39.0
2023-01-19T09:57:04.503Z,39.0
2023-01-19T09:58:04.507Z,39.0
2023-01-19T09:59:04.459Z,38.9
2023-01-19T10:00:04.479Z,38.9
2023-01-19T10:01:04.536Z,38.9
2023-01-19T10:02:04.496Z,38.9
2023-01-19T10:03:04.619Z,38.9
2023-01-19T10:04:04.509Z,38.9
2023-01-19T10:05:04.463Z,38.9
2023-01-19T10:06:04.500Z,38.9
2023-01-19T10:07:04.467Z,38.8
2023-01-19T10:08:04.510Z,38.8
2023-01-19T10:09:04.494Z,38.8
2023-01-19T10:10:04.512Z,38.8
2023-01-19T10:11:04.472Z,38.8
2023-01-19T10:12:04.599Z,38.8
2023-01-19T10:13:04.470Z,38.8
2023-01-19T10:14:04.501Z,38.8
2023-01-19T10:15:04.517Z,38.8
2023-01-19T10:16:04.536Z,38.8
2023-01-19T10:17:04.472Z,38.8
2023-01-19T10:18:04.495Z,38.8
2023-01-19T10:19:04.477Z,38.8
2023-01-19T10:20:04.488Z,38.8
2023-01-19T10:21:05.552Z,38.8
2023-01-19T10:22:04.487Z,38.8
2023-01-19T10:23:04.789Z,38.8
2023-01-19T10:24:05.891Z,38.8
2023-01-19T10:25:04.480Z,38.8
2023-01-19T10:26:04.503Z,38.8
2023-01-19T10:27:04.540Z,38.8
2023-01-19T10:28:04.542Z,38.8
2023-01-19T10:29:04.486Z,38.7
2023-01-19T10:30:04.507Z,38.8
2023-01-19T10:31:04.591Z,38.8
2023-01-19T10:32:04.569Z,38.8
2023-01-19T10:33:04.597Z,38.8
2023-01-19T10:34:04.489Z,38.8
2023-01-19T10:35:04.473Z,38.7
2023-01-19T10:36:04.505Z,38.7
2023-01-19T10:37:04.484Z,38.7
2023-01-19T10:38:04.536Z,38.7
2023-01-19T10:39:04.545Z,38.8
2023-01-19T10:40:04.518Z,38.8
2023-01-19T10:41:04.558Z,38.7
2023-01-19T10:42:04.515Z,38.7
2023-01-19T10:43:04.823Z,38.7
2023-01-19T10:44:04.507Z,38.7
2023-01-19T10:45:04.518Z,38.7
2023-01-19T10:46:04.569Z,38.7
2023-01-19T10:47:04.486Z,38.7
2023-01-19T10:48:04.503Z,38.7
2023-01-19T10:49:04.493Z,38.7
2023-01-19T10:50:04.524Z,38.7
2023-01-19T10:51:04.533Z,38.7
2023-01-19T10:52:04.519Z,38.7
2023-01-19T10:53:04.858Z,38.7
2023-01-19T10:54:04.545Z,38.7
2023-01-19T10:55:04.557Z,38.7
2023-01-19T10:56:04.622Z,38.7
2023-01-19T10:57:04.560Z,38.7
2023-01-19T10:58:04.521Z,38.7
2023-01-19T10:59:04.492Z,38.7
2023-01-19T11:00:04.551Z,38.7
2023-01-19T11:01:04.778Z,38.7
2023-01-19T11:02:04.722Z,38.7
2023-01-19T11:03:04.998Z,38.7
2023-01-19T11:04:04.501Z,38.7
2023-01-19T11:05:04.510Z,38.7
2023-01-19T11:06:04.530Z,38.7
2023-01-19T11:07:04.484Z,38.7
2023-01-19T11:08:05.742Z,38.7
2023-01-19T11:09:30.974Z,39.4
2023-01-19T11:10:03.639Z,38.8
2023-01-19T11:11:04.377Z,38.7
2023-01-19T11:12:03.740Z,38.7
2023-01-19T11:13:04.257Z,38.7
2023-01-19T11:14:04.644Z,38.7
2023-01-19T11:15:03.715Z,38.6
2023-01-19T11:16:03.755Z,38.6
2023-01-19T11:17:03.727Z,38.6
2023-01-19T11:18:03.647Z,38.6
2023-01-19T11:19:03.699Z,38.6
2023-01-19T11:20:03.661Z,38.6
2023-01-19T11:21:03.738Z,38.6
2023-01-19T11:22:03.653Z,38.6
2023-01-19T11:23:03.939Z,38.6
2023-01-19T11:24:03.646Z,38.6
2023-01-19T11:25:03.702Z,38.6
2023-01-19T11:26:03.682Z,38.6
2023-01-19T11:27:03.749Z,38.6
2023-01-19T11:28:03.652Z,38.6
2023-01-19T11:29:03.688Z,38.6
2023-01-19T11:30:03.678Z,38.6
2023-01-19T11:31:03.806Z,38.6
2023-01-19T11:32:03.685Z,38.6
2023-01-19T11:33:03.903Z,38.6
2023-01-19T11:34:03.648Z,38.6
2023-01-19T11:35:03.678Z,38.6
2023-01-19T11:36:03.726Z,38.6
2023-01-19T11:37:03.754Z,38.6
2023-01-19T11:38:03.652Z,38.6
2023-01-19T11:39:03.705Z,38.6
2023-01-19T11:40:03.671Z,38.6
2023-01-19T11:41:03.696Z,38.6
2023-01-19T11:42:03.664Z,38.6
2023-01-19T11:43:04.052Z,38.6
2023-01-19T11:44:03.683Z,38.6
2023-01-19T11:45:04.138Z,38.6
2023-01-19T11:46:03.769Z,38.6
2023-01-19T11:47:03.701Z,38.6
2023-01-19T11:48:04.159Z,38.6
2023-01-19T11:49:03.681Z,38.5
2023-01-19T11:50:03.654Z,38.6
2023-01-19T11:51:03.722Z,38.6
2023-01-19T11:52:03.666Z,38.5
2023-01-19T11:53:03.702Z,38.5
2023-01-19T11:54:03.656Z,38.5
2023-01-19T11:56:36.767Z,39.6
2023-01-19T11:57:03.811Z,38.9
2023-01-19T11:58:04.827Z,38.7
2023-01-19T11:59:03.807Z,38.6
2023-01-19T12:00:03.795Z,38.6
2023-01-19T12:01:03.845Z,38.6
2023-01-19T12:02:03.888Z,38.6
2023-01-19T12:03:04.751Z,38.6
2023-01-19T12:04:03.775Z,38.6
2023-01-19T12:05:03.807Z,38.5
2023-01-19T12:06:03.781Z,38.5
2023-01-19T12:07:03.816Z,38.5
2023-01-19T12:08:06.441Z,38.5
2023-01-19T12:09:04.282Z,38.5
2023-01-19T12:10:04.243Z,38.5
2023-01-19T12:11:03.800Z,38.5
2023-01-19T12:12:03.782Z,38.6
2023-01-19T12:13:03.805Z,38.6
2023-01-19T12:14:03.863Z,38.6
2023-01-19T12:15:03.785Z,38.6
2023-01-19T12:16:03.798Z,38.6
2023-01-19T12:17:03.796Z,38.6
2023-01-19T12:18:04.266Z,38.5
2023-01-19T12:19:04.027Z,38.5
2023-01-19T12:20:03.912Z,38.5
2023-01-19T12:21:04.202Z,38.5
2023-01-19T12:22:03.797Z,38.5
2023-01-19T12:23:03.783Z,38.5
2023-01-19T12:24:04.141Z,38.5
2023-01-19T12:25:03.795Z,38.5
2023-01-19T12:26:04.934Z,38.5
2023-01-19T12:27:03.791Z,38.5
2023-01-19T12:28:05.234Z,38.5
2023-01-19T12:29:03.798Z,38.5
2023-01-19T12:30:03.902Z,38.5
2023-01-19T12:31:03.889Z,38.5
2023-01-19T12:32:03.845Z,38.5
2023-01-19T12:33:03.814Z,38.5
2023-01-19T12:34:03.807Z,38.5
2023-01-19T12:35:03.790Z,38.5
2023-01-19T12:36:03.814Z,38.5
2023-01-19T12:37:03.814Z,38.5
2023-01-19T12:38:03.848Z,38.5
2023-01-19T12:39:03.789Z,38.5
2023-01-19T12:40:03.849Z,38.5
2023-01-19T12:41:03.783Z,38.5
2023-01-19T12:42:03.847Z,38.4
2023-01-19T12:43:03.797Z,38.4
2023-01-19T12:44:04.042Z,38.4
2023-01-19T12:45:03.784Z,38.4
2023-01-19T12:46:03.961Z,38.4
2023-01-19T12:47:03.798Z,38.4
2023-01-19T12:48:03.870Z,38.4
2023-01-19T12:49:03.778Z,38.4
2023-01-19T12:50:03.822Z,38.5
2023-01-19T12:51:03.792Z,38.4
2023-01-19T12:52:03.822Z,38.5
2023-01-19T12:53:03.809Z,38.4
2023-01-19T12:54:04.081Z,38.5
2023-01-19T12:55:03.821Z,38.5
2023-01-19T12:56:03.848Z,38.5
2023-01-19T12:57:03.806Z,38.5
2023-01-19T12:58:03.857Z,38.5
2023-01-19T13:01:03.871Z,39.2
2023-01-19T13:02:03.752Z,38.7
2023-01-19T13:03:03.834Z,38.6
2023-01-19T13:04:04.112Z,38.5
2023-01-19T13:05:03.723Z,38.5
2023-01-19T13:06:03.700Z,38.5
2023-01-19T13:07:03.844Z,38.5
2023-01-19T13:08:03.703Z,38.4
2023-01-19T13:09:04.723Z,38.5
2023-01-19T13:10:03.728Z,38.4
2023-01-19T13:11:03.750Z,38.4
2023-01-19T13:12:03.703Z,38.4
2023-01-19T13:13:03.792Z,38.4
2023-01-19T13:14:03.720Z,38.4
2023-01-19T13:15:03.739Z,38.4
2023-01-19T13:16:03.750Z,38.4
2023-01-19T13:17:03.737Z,38.4
2023-01-19T13:18:03.708Z,38.4
2023-01-19T13:19:03.805Z,38.4
2023-01-19T13:20:03.746Z,38.4
2023-01-19T13:21:03.822Z,38.5
2023-01-19T13:22:03.718Z,38.4
2023-01-19T13:23:03.783Z,38.5
2023-01-19T13:24:03.707Z,38.5